createdAt,value
2019-03-02T00:00:03.483Z,7.21
2019-03-02T00:01:02.246Z,7.20
2019-03-02T00:02:02.219Z,7.20
2019-03-02T00:03:02.197Z,7.20
2019-03-02T00:04:02.176Z,7.20
2019-03-02T00:05:02.187Z,7.25
2019-03-02T00:06:02.243Z,7.25
2019-03-02T00:07:02.135Z,7.21
2019-03-02T00:08:02.103Z,7.31
2019-03-02T00:09:02.088Z,7.25
2019-03-02T00:10:02.075Z,7.20
2019-03-02T00:11:02.029Z,7.10
2019-03-02T00:12:02.048Z,7.09
2019-03-02T00:13:04.002Z,7.15
2019-03-02T00:14:01.969Z,7.24
2019-03-02T00:15:01.945Z,7.21
2019-03-02T00:16:04.338Z,7.21
2019-03-02T00:17:01.919Z,7.20
2019-03-02T00:18:01.885Z,7.15
2019-03-02T00:19:02.946Z,7.13
2019-03-02T00:20:01.841Z,7.10
2019-03-02T00:21:01.836Z,7.10
2019-03-02T00:22:06.330Z,7.20
2019-03-02T00:23:01.787Z,7.25
2019-03-02T00:24:01.757Z,7.20
2019-03-02T00:25:01.737Z,7.12
2019-03-02T00:26:01.752Z,7.17
2019-03-02T00:27:01.690Z,7.15
2019-03-02T00:28:01.676Z,7.12
2019-03-02T00:29:01.657Z,7.09
2019-03-02T00:30:01.631Z,7.13
2019-03-02T00:31:02.557Z,7.10
2019-03-02T00:32:01.585Z,7.09
2019-03-02T00:33:01.571Z,7.12
2019-03-02T00:34:01.543Z,7.07
2019-03-02T00:35:03.819Z,7.15
2019-03-02T00:36:01.502Z,7.13
2019-03-02T00:37:01.500Z,7.07
2019-03-02T00:38:05.010Z,7.13
2019-03-02T00:39:01.659Z,7.07
2019-03-02T00:40:01.428Z,7.21
2019-03-02T00:41:03.715Z,7.16
2019-03-02T00:42:01.398Z,7.10
2019-03-02T00:43:01.357Z,7.10
2019-03-02T00:44:03.844Z,7.09
2019-03-02T00:45:01.315Z,7.16
2019-03-02T00:46:01.290Z,7.13
2019-03-02T00:47:01.275Z,7.10
2019-03-02T00:48:01.267Z,7.20
2019-03-02T00:49:01.226Z,7.13
2019-03-02T00:50:02.436Z,7.02
2019-03-02T00:51:01.185Z,7.06
2019-03-02T00:52:01.168Z,7.05
2019-03-02T00:53:02.095Z,7.10
2019-03-02T00:54:01.147Z,7.12
2019-03-02T00:55:01.107Z,7.13
2019-03-02T00:56:04.177Z,7.12
2019-03-02T00:57:01.060Z,6.98
2019-03-02T00:58:01.041Z,6.98
2019-03-02T00:59:03.933Z,7.10
2019-03-02T01:00:01.013Z,6.98
2019-03-02T01:01:00.983Z,7.09
2019-03-02T01:02:04.438Z,7.13
2019-03-02T01:03:00.946Z,7.07
2019-03-02T01:04:00.917Z,7.13
2019-03-02T01:05:01.596Z,7.06
2019-03-02T01:06:00.873Z,7.15
2019-03-02T01:07:00.850Z,7.10
2019-03-02T01:08:01.045Z,7.15
2019-03-02T01:09:00.808Z,7.12
2019-03-02T01:10:00.810Z,7.15
2019-03-02T01:11:00.784Z,7.10
2019-03-02T01:12:00.750Z,7.07
2019-03-02T01:13:00.725Z,6.99
2019-03-02T01:14:00.707Z,6.98
2019-03-02T01:15:04.976Z,7.07
2019-03-02T01:16:00.676Z,7.07
2019-03-02T01:17:00.639Z,7.09
2019-03-02T01:18:03.764Z,7.05
2019-03-02T01:19:00.606Z,7.06
2019-03-02T01:20:00.593Z,7.07
2019-03-02T01:21:03.917Z,7.07
2019-03-02T01:22:00.539Z,7.03
2019-03-02T01:23:00.514Z,7.06
2019-03-02T01:24:03.266Z,6.97
2019-03-02T01:25:00.473Z,7.05
2019-03-02T01:26:00.471Z,7.16
2019-03-02T01:27:00.610Z,7.02
2019-03-02T01:28:00.468Z,7.10
2019-03-02T01:29:00.393Z,6.99
2019-03-02T01:30:00.366Z,7.16
2019-03-02T01:31:01.746Z,7.06
2019-03-02T01:32:00.338Z,7.09
2019-03-02T01:33:00.298Z,6.98
2019-03-02T01:34:00.727Z,7.13
2019-03-02T01:35:00.320Z,7.15
2019-03-02T01:36:00.238Z,7.13
2019-03-02T01:37:00.223Z,7.15
2019-03-02T01:38:00.211Z,7.13
2019-03-02T01:39:00.176Z,7.15
2019-03-02T01:40:00.856Z,7.12
2019-03-02T01:41:00.138Z,7.16
2019-03-02T01:42:00.111Z,7.12
2019-03-02T01:43:01.944Z,7.15
2019-03-02T01:44:00.072Z,6.99
2019-03-02T01:45:00.049Z,7.10
2019-03-02T01:46:03.275Z,6.99
2019-03-02T01:47:00.020Z,7.03
2019-03-02T01:48:00.008Z,7.02
2019-03-02T01:49:01.550Z,6.98
2019-03-02T01:49:59.946Z,6.97
2019-03-02T01:50:59.933Z,6.98
2019-03-02T01:51:59.932Z,7.02
2019-03-02T01:52:59.882Z,7.02
2019-03-02T01:53:59.886Z,6.98
2019-03-02T01:54:59.844Z,6.98
2019-03-02T01:56:02.788Z,6.97
2019-03-02T01:56:59.798Z,6.99
2019-03-02T01:57:59.787Z,6.97
2019-03-02T01:59:00.614Z,7.06
2019-03-02T01:59:59.761Z,6.98
2019-03-02T02:00:59.722Z,6.94
2019-03-02T02:02:00.056Z,7.06
2019-03-02T02:02:59.677Z,6.98
2019-03-02T02:03:59.655Z,7.09
2019-03-02T02:04:59.639Z,7.02
2019-03-02T02:07:41.539Z,7.03
2019-03-02T02:08:41.533Z,7.03
2019-03-02T02:09:41.557Z,7.06
2019-03-02T02:10:43.433Z,7.13
2019-03-02T02:11:41.463Z,7.06
2019-03-02T02:12:41.436Z,7.15
2019-03-02T02:13:42.843Z,7.10
2019-03-02T02:14:41.392Z,7.13
2019-03-02T02:15:41.389Z,6.95
2019-03-02T02:16:41.819Z,7.06
2019-03-02T02:17:41.347Z,7.06
2019-03-02T02:18:41.307Z,6.99
2019-03-02T02:19:41.290Z,6.99
2019-03-02T02:20:41.265Z,7.03
2019-03-02T02:21:41.240Z,7.16
2019-03-02T02:22:41.222Z,7.07
2019-03-02T02:23:41.224Z,6.97
2019-03-02T02:24:41.189Z,7.02
2019-03-02T02:25:41.156Z,6.99
2019-03-02T02:26:43.979Z,7.02
2019-03-02T02:27:41.114Z,7.02
2019-03-02T02:28:41.115Z,6.97
2019-03-02T02:29:43.515Z,6.98
2019-03-02T02:30:41.052Z,6.98
2019-03-02T02:31:44.981Z,6.99
2019-03-02T02:32:41.017Z,7.06
2019-03-02T02:33:43.455Z,6.98
2019-03-02T02:34:40.999Z,7.03
2019-03-02T02:35:41.783Z,7.03
2019-03-02T02:36:40.924Z,6.99
2019-03-02T02:37:40.931Z,7.10
2019-03-02T02:38:40.888Z,7.06
2019-03-02T02:39:40.869Z,7.12
2019-03-02T02:40:40.844Z,6.99
2019-03-02T02:41:40.826Z,7.06
2019-03-02T02:42:43.347Z,7.02
2019-03-02T02:43:40.801Z,7.12
2019-03-02T02:44:40.765Z,7.17
2019-03-02T02:45:40.747Z,6.99
2019-03-02T02:46:40.725Z,7.07
2019-03-02T02:47:40.707Z,6.99
2019-03-02T02:48:40.701Z,7.03
2019-03-02T02:49:44.519Z,6.99
2019-03-02T02:50:42.950Z,7.03
2019-03-02T02:51:44.341Z,7.03
2019-03-02T02:52:40.599Z,7.03
2019-03-02T02:53:44.915Z,6.98
2019-03-02T02:54:40.578Z,6.99
2019-03-02T02:55:41.271Z,6.98
2019-03-02T02:56:40.529Z,6.99
2019-03-02T02:57:40.495Z,6.98
2019-03-02T02:58:40.481Z,6.97
2019-03-02T02:59:40.466Z,6.98
2019-03-02T03:00:40.472Z,7.02
2019-03-02T03:01:40.417Z,7.09
2019-03-02T03:02:40.391Z,6.99
2019-03-02T03:03:40.370Z,7.03
2019-03-02T03:04:40.362Z,7.06
2019-03-02T03:05:40.329Z,7.02
2019-03-02T03:06:40.325Z,6.95
2019-03-02T03:07:40.286Z,7.02
2019-03-02T03:08:40.263Z,7.02
2019-03-02T03:09:40.268Z,7.06
2019-03-02T03:10:40.223Z,7.12
2019-03-02T03:11:44.288Z,7.03
2019-03-02T03:12:40.183Z,7.09
2019-03-02T03:13:40.670Z,7.06
2019-03-02T03:14:40.140Z,7.06
2019-03-02T03:15:40.134Z,6.97
2019-03-02T03:16:41.081Z,7.03
2019-03-02T03:17:40.071Z,7.07
2019-03-02T03:18:40.056Z,7.06
2019-03-02T03:19:40.032Z,7.09
2019-03-02T03:20:47.822Z,7.06
2019-03-02T03:21:40.007Z,7.07
2019-03-02T03:22:40.870Z,7.06
2019-03-02T03:23:39.951Z,7.06
2019-03-02T03:24:40.832Z,7.06
2019-03-02T03:25:39.911Z,7.02
2019-03-02T03:26:39.904Z,7.02
2019-03-02T03:27:40.669Z,6.98
2019-03-02T03:28:39.863Z,6.98
2019-03-02T03:29:44.621Z,7.03
2019-03-02T03:30:40.219Z,6.95
2019-03-02T03:31:39.803Z,6.99
2019-03-02T03:32:39.762Z,7.03
2019-03-02T03:33:43.665Z,6.99
2019-03-02T03:34:39.718Z,6.98
2019-03-02T03:35:39.701Z,6.98
2019-03-02T03:36:39.685Z,6.95
2019-03-02T03:37:39.675Z,6.98
2019-03-02T03:38:39.643Z,6.95
2019-03-02T03:39:41.785Z,6.99
2019-03-02T03:40:39.592Z,7.02
2019-03-02T03:41:43.465Z,6.99
2019-03-02T03:42:39.569Z,6.99
2019-03-02T03:43:42.558Z,7.02
2019-03-02T03:44:39.505Z,6.99
2019-03-02T03:45:43.282Z,6.94
2019-03-02T03:46:39.465Z,7.06
2019-03-02T03:47:40.462Z,7.03
2019-03-02T03:48:39.442Z,6.97
2019-03-02T03:49:39.403Z,7.02
2019-03-02T03:50:39.381Z,7.03
2019-03-02T03:51:39.373Z,7.06
2019-03-02T03:52:44.125Z,7.02
2019-03-02T03:53:39.341Z,6.95
2019-03-02T03:54:40.908Z,6.99
2019-03-02T03:55:39.286Z,6.97
2019-03-02T03:56:42.509Z,7.05
2019-03-02T03:57:39.230Z,7.02
2019-03-02T03:58:40.014Z,7.03
2019-03-02T03:59:39.213Z,6.99
2019-03-02T04:00:40.365Z,6.98
2019-03-02T04:01:39.169Z,6.99
2019-03-02T04:02:39.130Z,7.05
2019-03-02T04:03:39.617Z,7.15
2019-03-02T04:04:39.102Z,6.98
2019-03-02T04:05:42.081Z,6.98
2019-03-02T04:06:39.049Z,7.03
2019-03-02T04:07:39.026Z,7.03
2019-03-02T04:08:39.010Z,7.06
2019-03-02T04:09:42.925Z,7.10
2019-03-02T04:10:38.956Z,7.09
2019-03-02T04:11:42.087Z,7.10
2019-03-02T04:12:38.935Z,7.09
2019-03-02T04:13:44.142Z,7.12
2019-03-02T04:14:38.877Z,7.09
2019-03-02T04:15:41.561Z,7.12
2019-03-02T04:16:38.835Z,7.09
2019-03-02T04:17:40.633Z,7.02
2019-03-02T04:18:38.807Z,7.09
2019-03-02T04:19:38.782Z,7.12
2019-03-02T04:20:38.752Z,7.10
2019-03-02T04:21:38.744Z,7.13
2019-03-02T04:22:39.932Z,7.05
2019-03-02T04:23:38.692Z,7.06
2019-03-02T04:24:39.677Z,6.99
2019-03-02T04:25:38.643Z,7.06
2019-03-02T04:26:38.769Z,7.09
2019-03-02T04:27:38.622Z,7.05
2019-03-02T04:28:38.590Z,7.06
2019-03-02T04:29:38.574Z,6.98
2019-03-02T04:30:38.543Z,6.99
2019-03-02T04:31:38.516Z,7.16
2019-03-02T04:32:38.512Z,7.21
2019-03-02T04:33:39.236Z,7.12
2019-03-02T04:34:38.453Z,7.12
2019-03-02T04:35:38.432Z,7.09
2019-03-02T04:36:38.413Z,7.17
2019-03-02T04:37:38.408Z,7.07
2019-03-02T04:38:38.376Z,7.21
2019-03-02T04:39:38.370Z,7.10
2019-03-02T04:40:38.334Z,7.15
2019-03-02T04:41:39.684Z,7.15
2019-03-02T04:42:38.296Z,7.10
2019-03-02T04:43:38.261Z,7.06
2019-03-02T04:44:38.239Z,7.13
2019-03-02T04:45:39.742Z,7.13
2019-03-02T04:46:38.198Z,7.05
2019-03-02T04:47:38.177Z,7.17
2019-03-02T04:48:39.302Z,7.16
2019-03-02T04:49:39.099Z,7.13
2019-03-02T04:50:38.113Z,7.12
2019-03-02T04:51:40.217Z,7.12
2019-03-02T04:52:38.075Z,7.15
2019-03-02T04:53:38.058Z,7.06
2019-03-02T04:54:38.602Z,7.10
2019-03-02T04:55:38.006Z,7.10
2019-03-02T04:56:37.985Z,7.13
2019-03-02T04:57:37.987Z,7.06
2019-03-02T04:58:37.964Z,7.06
2019-03-02T04:59:37.946Z,7.10
2019-03-02T05:00:37.909Z,7.16
2019-03-02T05:01:38.871Z,7.07
2019-03-02T05:02:38.595Z,7.16
2019-03-02T05:03:37.855Z,7.07
2019-03-02T05:04:37.819Z,7.07
2019-03-02T05:05:40.624Z,7.15
2019-03-02T05:06:37.773Z,7.06
2019-03-02T05:07:37.757Z,7.03
2019-03-02T05:08:41.153Z,6.99
2019-03-02T05:09:37.713Z,6.97
2019-03-02T05:10:37.704Z,6.99
2019-03-02T05:11:39.426Z,7.07
2019-03-02T05:12:37.663Z,6.98
2019-03-02T05:13:37.649Z,7.07
2019-03-02T05:14:40.217Z,7.09
2019-03-02T05:15:37.582Z,7.03
2019-03-02T05:16:37.573Z,7.09
2019-03-02T05:17:39.776Z,7.06
2019-03-02T05:18:37.520Z,7.07
2019-03-02T05:19:37.516Z,7.13
2019-03-02T05:20:40.954Z,7.15
2019-03-02T05:21:39.829Z,7.12
2019-03-02T05:22:37.438Z,7.16
2019-03-02T05:23:37.419Z,7.06
2019-03-02T05:24:40.505Z,7.13
2019-03-02T05:25:37.395Z,7.16
2019-03-02T05:26:37.353Z,7.07
2019-03-02T05:27:37.330Z,7.03
2019-03-02T05:28:39.560Z,7.05
2019-03-02T05:29:37.295Z,7.05
2019-03-02T05:30:37.270Z,6.99
2019-03-02T05:31:37.622Z,7.03
2019-03-02T05:32:37.228Z,6.99
2019-03-02T05:33:37.208Z,7.03
2019-03-02T05:34:39.723Z,7.03
2019-03-02T05:35:37.165Z,6.99
2019-03-02T05:36:37.147Z,6.97
2019-03-02T05:37:39.253Z,6.99
2019-03-02T05:38:37.098Z,7.05
2019-03-02T05:39:37.085Z,7.05
2019-03-02T05:40:37.061Z,7.03
2019-03-02T05:41:39.325Z,6.99
2019-03-02T05:42:37.020Z,7.03
2019-03-02T05:43:37.012Z,6.98
2019-03-02T05:44:36.985Z,6.99
2019-03-02T05:45:36.957Z,7.07
2019-03-02T05:46:36.933Z,7.05
2019-03-02T05:47:36.916Z,7.16
2019-03-02T05:48:38.971Z,7.09
2019-03-02T05:49:36.877Z,7.15
2019-03-02T05:50:36.852Z,7.07
2019-03-02T05:51:38.875Z,7.16
2019-03-02T05:52:36.810Z,7.15
2019-03-02T05:53:36.789Z,7.16
2019-03-02T05:54:38.631Z,7.20
2019-03-02T05:55:36.761Z,7.07
2019-03-02T05:56:36.733Z,7.15
2019-03-02T05:57:36.998Z,7.09
2019-03-02T05:58:36.682Z,7.06
2019-03-02T05:59:36.660Z,7.15
2019-03-02T06:00:37.676Z,7.16
2019-03-02T06:01:36.817Z,7.15
2019-03-02T06:02:36.601Z,7.15
2019-03-02T06:03:36.586Z,7.10
2019-03-02T06:04:36.556Z,7.09
2019-03-02T06:05:36.555Z,7.15
2019-03-02T06:06:36.516Z,7.20
2019-03-02T06:07:36.494Z,7.21
2019-03-02T06:08:36.479Z,7.12
2019-03-02T06:09:36.467Z,7.15
2019-03-02T06:10:36.431Z,7.16
2019-03-02T06:11:39.341Z,7.09
2019-03-02T06:12:36.386Z,7.13
2019-03-02T06:13:36.376Z,7.13
2019-03-02T06:14:36.377Z,7.12
2019-03-02T06:15:36.398Z,7.15
2019-03-02T06:16:36.307Z,7.12
2019-03-02T06:17:36.283Z,7.10
2019-03-02T06:18:36.291Z,7.12
2019-03-02T06:19:36.249Z,7.20
2019-03-02T06:20:36.754Z,7.12
2019-03-02T06:21:36.197Z,7.06
2019-03-02T06:22:36.181Z,7.06
2019-03-02T06:23:36.157Z,7.07
2019-03-02T06:24:37.664Z,7.13
2019-03-02T06:25:36.124Z,7.17
2019-03-02T06:26:36.749Z,7.10
2019-03-02T06:27:36.066Z,7.12
2019-03-02T06:28:36.074Z,7.16
2019-03-02T06:29:36.029Z,7.15
2019-03-02T06:30:36.012Z,7.20
2019-03-02T06:31:36.022Z,7.12
2019-03-02T06:32:35.971Z,7.09
2019-03-02T06:33:36.650Z,7.15
2019-03-02T06:34:35.944Z,7.15
2019-03-02T06:35:35.920Z,7.10
2019-03-02T06:36:35.886Z,7.16
2019-03-02T06:37:35.864Z,7.15
2019-03-02T06:38:35.843Z,7.21
2019-03-02T06:39:35.843Z,7.23
2019-03-02T06:40:35.819Z,7.23
2019-03-02T06:41:36.608Z,7.28
2019-03-02T06:42:35.761Z,7.23
2019-03-02T06:43:35.737Z,7.25
2019-03-02T06:44:35.714Z,7.21
2019-03-02T06:45:35.694Z,7.25
2019-03-02T06:46:35.689Z,7.23
2019-03-02T06:47:36.649Z,7.30
2019-03-02T06:48:35.633Z,7.30
2019-03-02T06:49:35.617Z,7.24
2019-03-02T06:50:36.785Z,7.23
2019-03-02T06:51:35.588Z,7.23
2019-03-02T06:52:35.557Z,7.24
2019-03-02T06:53:37.162Z,7.32
2019-03-02T06:54:35.497Z,7.31
2019-03-02T06:55:35.482Z,7.32
2019-03-02T06:56:35.916Z,7.32
2019-03-02T06:57:35.465Z,7.30
2019-03-02T06:58:35.417Z,7.32
2019-03-02T06:59:35.815Z,7.34
2019-03-02T07:00:35.378Z,7.27
2019-03-02T07:01:35.352Z,7.21
2019-03-02T07:02:35.872Z,7.37
2019-03-02T07:03:35.316Z,7.32
2019-03-02T07:04:35.294Z,7.34
2019-03-02T07:05:37.208Z,7.40
2019-03-02T07:06:35.250Z,7.45
2019-03-02T07:07:35.227Z,7.37
2019-03-02T07:08:36.379Z,7.45
2019-03-02T07:09:35.190Z,7.37
2019-03-02T07:10:35.194Z,7.39
2019-03-02T07:11:35.145Z,7.42
2019-03-02T07:12:35.126Z,7.45
2019-03-02T07:13:35.105Z,7.42
2019-03-02T07:14:35.080Z,7.31
2019-03-02T07:15:35.078Z,7.42
2019-03-02T07:16:35.048Z,7.42
2019-03-02T07:17:35.018Z,7.35
2019-03-02T07:18:35.002Z,7.37
2019-03-02T07:19:34.996Z,7.40
2019-03-02T07:20:34.953Z,7.45
2019-03-02T07:21:37.630Z,7.37
2019-03-02T07:22:34.935Z,7.42
2019-03-02T07:23:34.898Z,7.48
2019-03-02T07:24:34.877Z,7.42
2019-03-02T07:25:37.063Z,7.40
2019-03-02T07:26:34.831Z,7.37
2019-03-02T07:27:34.813Z,7.35
2019-03-02T07:28:38.865Z,7.42
2019-03-02T07:29:34.773Z,7.46
2019-03-02T07:30:34.753Z,7.42
2019-03-02T07:31:34.749Z,7.37
2019-03-02T07:32:34.712Z,7.37
2019-03-02T07:33:34.689Z,7.46
2019-03-02T07:34:34.668Z,7.52
2019-03-02T07:35:34.647Z,7.43
2019-03-02T07:36:34.914Z,7.39
2019-03-02T07:37:35.403Z,7.50
2019-03-02T07:38:34.597Z,7.52
2019-03-02T07:39:36.510Z,7.45
2019-03-02T07:40:34.541Z,7.46
2019-03-02T07:41:34.522Z,7.50
2019-03-02T07:42:34.839Z,7.57
2019-03-02T07:43:34.480Z,7.49
2019-03-02T07:44:34.462Z,7.50
2019-03-02T07:45:36.337Z,7.53
2019-03-02T07:46:34.416Z,7.50
2019-03-02T07:47:34.403Z,7.63
2019-03-02T07:48:36.706Z,7.61
2019-03-02T07:49:34.363Z,7.55
2019-03-02T07:50:34.333Z,7.61
2019-03-02T07:51:37.841Z,7.64
2019-03-02T07:52:34.291Z,7.64
2019-03-02T07:53:35.153Z,7.69
2019-03-02T07:54:34.258Z,7.61
2019-03-02T07:55:34.231Z,7.57
2019-03-02T07:56:34.207Z,7.63
2019-03-02T07:57:34.189Z,7.68
2019-03-02T07:58:34.168Z,7.64
2019-03-02T07:59:34.163Z,7.68
2019-03-02T08:00:34.127Z,7.71
2019-03-02T08:01:34.107Z,7.77
2019-03-02T08:02:34.089Z,7.64
2019-03-02T08:03:34.083Z,7.55
2019-03-02T08:04:34.941Z,7.68
2019-03-02T08:05:34.046Z,7.64
2019-03-02T08:06:34.011Z,7.61
2019-03-02T08:07:37.609Z,7.63
2019-03-02T08:08:33.963Z,7.69
2019-03-02T08:09:33.940Z,7.69
2019-03-02T08:10:34.868Z,7.63
2019-03-02T08:11:33.901Z,7.68
2019-03-02T08:12:36.691Z,7.58
2019-03-02T08:13:36.477Z,7.64
2019-03-02T08:14:33.832Z,7.61
2019-03-02T08:15:33.819Z,7.64
2019-03-02T08:16:34.530Z,7.61
2019-03-02T08:17:36.626Z,7.61
2019-03-02T08:18:33.749Z,7.72
2019-03-02T08:19:33.733Z,7.60
2019-03-02T08:20:33.709Z,7.64
2019-03-02T08:21:35.847Z,7.64
2019-03-02T08:22:33.667Z,7.63
2019-03-02T08:23:33.654Z,7.71
2019-03-02T08:24:33.636Z,7.68
2019-03-02T08:25:33.606Z,7.72
2019-03-02T08:26:33.605Z,7.68
2019-03-02T08:27:34.635Z,7.75
2019-03-02T08:28:33.547Z,7.72
2019-03-02T08:29:33.531Z,7.71
2019-03-02T08:30:34.198Z,7.69
2019-03-02T08:31:33.485Z,7.71
2019-03-02T08:32:33.481Z,7.82
2019-03-02T08:33:33.752Z,7.82
2019-03-02T08:34:33.418Z,7.79
2019-03-02T08:35:33.403Z,7.79
2019-03-02T08:36:34.366Z,7.86
2019-03-02T08:37:33.383Z,7.89
2019-03-02T08:38:33.336Z,7.90
2019-03-02T08:39:33.320Z,7.86
2019-03-02T08:40:33.298Z,7.89
2019-03-02T08:41:36.634Z,7.89
2019-03-02T08:42:33.276Z,7.89
2019-03-02T08:43:33.255Z,7.85
2019-03-02T08:44:34.970Z,7.98
2019-03-02T08:45:33.195Z,8.01
2019-03-02T08:46:33.169Z,8.01
2019-03-02T08:47:33.152Z,7.98
2019-03-02T08:48:33.132Z,7.98
2019-03-02T08:49:33.153Z,7.82
2019-03-02T08:50:33.088Z,7.83
2019-03-02T08:51:33.075Z,7.85
2019-03-02T08:52:33.048Z,7.89
2019-03-02T08:53:33.037Z,7.85
2019-03-02T08:54:33.023Z,7.89
2019-03-02T08:55:33.624Z,7.90
2019-03-02T08:56:32.970Z,7.86
2019-03-02T08:57:32.948Z,7.85
2019-03-02T08:58:32.946Z,7.98
2019-03-02T08:59:34.710Z,7.93
2019-03-02T09:00:32.906Z,8.00
2019-03-02T09:01:32.865Z,8.01
2019-03-02T09:02:32.840Z,7.97
2019-03-02T09:03:33.762Z,7.97
2019-03-02T09:04:33.093Z,8.08
2019-03-02T09:05:43.642Z,7.95
2019-03-02T09:06:34.686Z,8.00
2019-03-02T09:07:32.742Z,8.10
2019-03-02T09:08:32.726Z,8.11
2019-03-02T09:09:32.707Z,8.18
2019-03-02T09:10:32.678Z,8.19
2019-03-02T09:11:32.672Z,8.29
2019-03-02T09:12:32.651Z,8.43
2019-03-02T09:13:34.649Z,8.43
2019-03-02T09:14:32.592Z,8.47
2019-03-02T09:15:32.579Z,8.62
2019-03-02T09:16:32.576Z,8.63
2019-03-02T09:17:32.551Z,8.58
2019-03-02T09:18:44.249Z,8.66
2019-03-02T09:19:32.498Z,8.65
2019-03-02T09:20:35.757Z,8.83
2019-03-02T09:21:32.453Z,8.81
2019-03-02T09:22:32.432Z,8.83
2019-03-02T09:23:32.783Z,8.80
2019-03-02T09:24:32.395Z,8.86
2019-03-02T09:25:32.378Z,8.84
2019-03-02T09:26:32.357Z,8.83
2019-03-02T09:27:32.330Z,8.92
2019-03-02T09:28:32.311Z,8.83
2019-03-02T09:29:32.312Z,8.91
2019-03-02T09:30:32.272Z,9.01
2019-03-02T09:31:35.030Z,8.99
2019-03-02T09:32:32.251Z,9.10
2019-03-02T09:33:32.206Z,9.15
2019-03-02T09:34:32.188Z,9.24
2019-03-02T09:35:32.177Z,9.18
2019-03-02T09:36:32.183Z,9.21
2019-03-02T09:37:32.151Z,9.21
2019-03-02T09:38:32.120Z,9.18
2019-03-02T09:39:37.337Z,9.14
2019-03-02T09:40:32.114Z,9.14
2019-03-02T09:41:32.058Z,9.18
2019-03-02T09:42:37.933Z,9.10
2019-03-02T09:43:32.008Z,9.14
2019-03-02T09:44:32.736Z,9.14
2019-03-02T09:45:31.988Z,9.17
2019-03-02T09:46:31.957Z,9.29
2019-03-02T09:47:31.944Z,9.32
2019-03-02T09:48:31.934Z,9.26
2019-03-02T09:49:33.857Z,9.31
2019-03-02T09:50:31.889Z,9.29
2019-03-02T09:51:31.867Z,9.29
2019-03-02T09:52:31.834Z,9.28
2019-03-02T09:53:31.814Z,9.28
2019-03-02T09:54:33.911Z,9.31
2019-03-02T09:55:31.793Z,9.36
2019-03-02T09:56:31.759Z,9.31
2019-03-02T09:57:31.760Z,9.24
2019-03-02T09:58:31.721Z,9.21
2019-03-02T09:59:31.694Z,9.23
2019-03-02T10:00:31.676Z,9.20
2019-03-02T10:01:31.658Z,9.32
2019-03-02T10:02:31.652Z,9.39
2019-03-02T10:03:31.620Z,9.47
2019-03-02T10:04:31.600Z,9.58
2019-03-02T10:09:34.558Z,9.79
2019-03-02T10:10:34.522Z,9.75
2019-03-02T10:11:34.500Z,9.71
2019-03-02T10:12:34.482Z,9.60
2019-03-02T10:13:34.482Z,9.71
2019-03-02T10:14:35.114Z,9.72
2019-03-02T10:15:34.618Z,9.79
2019-03-02T10:16:34.405Z,9.86
2019-03-02T10:17:34.951Z,9.93
2019-03-02T10:18:34.359Z,10.04
2019-03-02T10:19:34.363Z,10.04
2019-03-02T10:20:34.325Z,9.94
2019-03-02T10:21:34.307Z,9.97
2019-03-02T10:22:35.360Z,9.87
2019-03-02T10:23:34.291Z,9.86
2019-03-02T10:24:34.259Z,9.90
2019-03-02T10:25:34.250Z,9.86
2019-03-02T10:26:34.214Z,9.89
2019-03-02T10:27:34.191Z,9.90
2019-03-02T10:28:35.333Z,9.86
2019-03-02T10:29:34.152Z,9.90
2019-03-02T10:30:34.155Z,9.97
2019-03-02T10:31:34.112Z,9.93
2019-03-02T10:32:34.094Z,10.04
2019-03-02T10:33:34.073Z,10.15
2019-03-02T10:34:34.057Z,10.22
2019-03-02T10:35:34.054Z,10.01
2019-03-02T10:36:34.026Z,10.12
2019-03-02T10:37:34.171Z,10.18
2019-03-02T10:38:33.981Z,10.20
2019-03-02T10:39:33.969Z,10.20
2019-03-02T10:40:33.959Z,10.14
2019-03-02T10:41:33.920Z,10.29
2019-03-02T10:42:35.938Z,10.25
2019-03-02T10:43:33.883Z,10.45
2019-03-02T10:44:33.870Z,10.36
2019-03-02T10:45:33.846Z,10.40
2019-03-02T10:46:33.850Z,10.47
2019-03-02T10:47:33.811Z,10.73
2019-03-02T10:48:33.789Z,10.78
2019-03-02T10:49:33.771Z,10.78
2019-03-02T10:50:33.840Z,10.97
2019-03-02T10:51:34.014Z,11.02
2019-03-02T10:52:33.717Z,10.94
2019-03-02T10:53:33.720Z,11.04
2019-03-02T10:54:34.846Z,11.18
2019-03-02T10:55:33.656Z,11.11
2019-03-02T10:56:33.643Z,11.33
2019-03-02T10:57:33.633Z,11.29
2019-03-02T10:58:34.635Z,11.46
2019-03-02T10:59:33.581Z,11.62
2019-03-02T11:00:33.572Z,11.54
2019-03-02T11:01:33.553Z,11.60
2019-03-02T11:02:33.542Z,11.70
2019-03-02T11:03:33.534Z,11.67
2019-03-02T11:04:33.492Z,11.69
2019-03-02T11:05:33.492Z,11.62
2019-03-02T11:06:34.121Z,11.57
2019-03-02T11:07:33.438Z,11.52
2019-03-02T11:08:33.419Z,11.42
2019-03-02T11:09:36.408Z,11.52
2019-03-02T11:10:33.414Z,11.72
2019-03-02T11:11:33.697Z,11.70
2019-03-02T11:12:33.350Z,11.70
2019-03-02T11:13:33.332Z,11.80
2019-03-02T11:14:33.338Z,11.78
2019-03-02T11:15:33.299Z,11.73
2019-03-02T11:16:33.293Z,11.99
2019-03-02T11:17:33.261Z,11.86
2019-03-02T11:18:34.631Z,11.75
2019-03-02T11:19:33.234Z,11.69
2019-03-02T11:20:33.205Z,11.67
2019-03-02T11:21:34.615Z,11.69
2019-03-02T11:22:38.618Z,11.88
2019-03-02T11:23:33.162Z,12.02
2019-03-02T11:24:33.135Z,12.10
2019-03-02T11:25:33.116Z,12.14
2019-03-02T11:26:33.108Z,12.13
2019-03-02T11:27:33.100Z,12.16
2019-03-02T11:28:33.068Z,12.10
2019-03-02T11:29:33.044Z,12.14
2019-03-02T11:30:33.029Z,12.16
2019-03-02T11:31:33.033Z,12.21
2019-03-02T11:32:33.025Z,12.17
2019-03-02T11:33:32.979Z,12.17
2019-03-02T11:34:33.807Z,12.27
2019-03-02T11:35:32.945Z,12.35
2019-03-02T11:36:32.982Z,12.46
2019-03-02T11:37:32.910Z,12.38
2019-03-02T11:38:33.533Z,12.46
2019-03-02T11:39:32.880Z,12.54
2019-03-02T11:40:33.152Z,12.59
2019-03-02T11:41:32.836Z,12.41
2019-03-02T11:42:32.826Z,12.46
2019-03-02T11:43:32.841Z,12.45
2019-03-02T11:44:32.790Z,12.42
2019-03-02T11:45:32.773Z,12.45
2019-03-02T11:46:32.753Z,12.24
2019-03-02T11:47:33.032Z,12.20
2019-03-02T11:48:32.719Z,12.32
2019-03-02T11:49:34.801Z,12.24
2019-03-02T11:50:32.684Z,12.34
2019-03-02T11:51:32.669Z,12.29
2019-03-02T11:52:34.963Z,12.34
2019-03-02T11:53:32.631Z,12.28
2019-03-02T11:54:32.632Z,12.21
2019-03-02T11:55:32.614Z,12.19
2019-03-02T11:56:32.582Z,12.21
2019-03-02T11:57:32.561Z,12.16
2019-03-02T11:58:33.490Z,12.17
2019-03-02T11:59:32.527Z,12.28
2019-03-02T12:00:37.681Z,12.14
2019-03-02T12:01:34.103Z,12.14
2019-03-02T12:02:32.490Z,12.27
2019-03-02T12:03:35.256Z,12.38
2019-03-02T12:04:32.444Z,12.39
2019-03-02T12:05:32.428Z,12.47
2019-03-02T12:06:32.415Z,12.45
2019-03-02T12:07:32.406Z,12.49
2019-03-02T12:08:32.454Z,12.46
2019-03-02T12:09:32.356Z,12.49
2019-03-02T12:10:32.339Z,12.52
2019-03-02T12:11:32.333Z,12.68
2019-03-02T12:12:32.327Z,12.77
2019-03-02T12:13:34.761Z,13.20
2019-03-02T12:14:34.558Z,13.28
2019-03-02T12:15:32.258Z,13.30
2019-03-02T12:16:32.235Z,13.41
2019-03-02T12:17:32.224Z,13.82
2019-03-02T12:18:32.227Z,14.02
2019-03-02T12:19:32.188Z,13.67
2019-03-02T12:20:32.195Z,13.69
2019-03-02T12:21:32.159Z,13.79
2019-03-02T12:22:34.399Z,14.25
2019-03-02T12:23:34.094Z,14.62
2019-03-02T12:24:32.100Z,14.51
2019-03-02T12:25:35.140Z,14.86
2019-03-02T12:26:32.069Z,14.89
2019-03-02T12:27:32.056Z,14.77
2019-03-02T12:28:32.963Z,14.96
2019-03-02T12:29:32.033Z,14.88
2019-03-02T12:30:32.020Z,14.99
2019-03-02T12:31:32.857Z,14.94
2019-03-02T12:32:31.975Z,14.40
2019-03-02T12:33:31.955Z,14.86
2019-03-02T12:34:34.594Z,14.88
2019-03-02T12:35:33.914Z,14.80
2019-03-02T12:36:31.916Z,14.57
2019-03-02T12:37:32.906Z,14.89
2019-03-02T12:38:31.878Z,14.52
2019-03-02T12:39:31.883Z,14.21
2019-03-02T12:40:31.880Z,13.88
2019-03-02T12:41:31.838Z,13.97
2019-03-02T12:42:31.964Z,14.00
2019-03-02T12:43:31.810Z,13.75
2019-03-02T12:44:31.798Z,13.85
2019-03-02T12:45:33.681Z,13.71
2019-03-02T12:46:31.758Z,13.64
2019-03-02T12:47:33.314Z,13.49
2019-03-02T12:48:31.728Z,13.39
2019-03-02T12:49:31.720Z,13.49
2019-03-02T12:50:31.702Z,13.30
2019-03-02T12:51:35.180Z,13.36
2019-03-02T12:52:31.687Z,13.36
2019-03-02T12:53:31.655Z,13.23
2019-03-02T12:54:31.635Z,13.14
2019-03-02T12:55:31.634Z,13.28
2019-03-02T12:56:32.896Z,13.20
2019-03-02T12:57:31.583Z,13.14
2019-03-02T12:58:31.572Z,13.12
2019-03-02T12:59:31.555Z,13.30
2019-03-02T13:00:31.533Z,13.36
2019-03-02T13:01:33.965Z,13.29
2019-03-02T13:02:31.521Z,13.32
2019-03-02T13:03:34.428Z,13.19
2019-03-02T13:04:31.495Z,13.22
2019-03-02T13:05:31.453Z,13.11
2019-03-02T13:06:35.353Z,13.17
2019-03-02T13:07:31.443Z,13.08
2019-03-02T13:08:31.404Z,13.10
2019-03-02T13:09:31.438Z,13.00
2019-03-02T13:10:31.382Z,12.96
2019-03-02T13:11:31.355Z,12.90
2019-03-02T13:12:31.347Z,12.85
2019-03-02T13:13:31.323Z,12.92
2019-03-02T13:14:32.273Z,12.86
2019-03-02T13:15:31.289Z,12.93
2019-03-02T13:16:31.303Z,12.89
2019-03-02T13:17:33.101Z,12.87